sensor_id;sensor_type;location;lat;lon;timestamp;P1;durP1;ratioP1;P2;durP2;ratioP2
81699;SDS011;71114;44.108;3.068;2023-07-13T00:00:23;4.18;;;1.92;;
81699;SDS011;71114;44.108;3.068;2023-07-13T00:02:50;5.80;;;2.08;;
81699;SDS011;71114;44.108;3.068;2023-07-13T00:05:18;5.15;;;2.17;;
81699;SDS011;71114;44.108;3.068;2023-07-13T00:07:44;5.93;;;2.50;;
81699;SDS011;71114;44.108;3.068;2023-07-13T00:10:11;6.35;;;1.80;;
81699;SDS011;71114;44.108;3.068;2023-07-13T00:12:37;6.82;;;2.42;;
81699;SDS011;71114;44.108;3.068;2023-07-13T00:15:05;6.40;;;2.00;;
81699;SDS011;71114;44.108;3.068;2023-07-13T00:17:32;4.47;;;1.98;;
81699;SDS011;71114;44.108;3.068;2023-07-13T00:19:58;4.53;;;2.17;;
81699;SDS011;71114;44.108;3.068;2023-07-13T00:22:24;6.15;;;2.33;;
81699;SDS011;71114;44.108;3.068;2023-07-13T00:24:51;5.68;;;2.30;;
81699;SDS011;71114;44.108;3.068;2023-07-13T00:27:18;4.97;;;2.13;;
81699;SDS011;71114;44.108;3.068;2023-07-13T00:29:44;4.15;;;2.05;;
81699;SDS011;71114;44.108;3.068;2023-07-13T00:32:10;5.97;;;3.15;;
81699;SDS011;71114;44.108;3.068;2023-07-13T00:34:37;6.47;;;2.33;;
81699;SDS011;71114;44.108;3.068;2023-07-13T00:37:04;6.50;;;2.25;;
81699;SDS011;71114;44.108;3.068;2023-07-13T00:39:31;5.80;;;2.00;;
81699;SDS011;71114;44.108;3.068;2023-07-13T00:41:58;4.38;;;1.95;;
81699;SDS011;71114;44.108;3.068;2023-07-13T00:44:24;6.32;;;2.28;;
81699;SDS011;71114;44.108;3.068;2023-07-13T00:46:50;4.95;;;1.90;;
81699;SDS011;71114;44.108;3.068;2023-07-13T00:49:18;5.05;;;1.95;;
81699;SDS011;71114;44.108;3.068;2023-07-13T00:54:11;6.05;;;2.33;;
81699;SDS011;71114;44.108;3.068;2023-07-13T00:56:39;5.70;;;2.13;;
81699;SDS011;71114;44.108;3.068;2023-07-13T00:59:06;6.28;;;1.95;;
81699;SDS011;71114;44.108;3.068;2023-07-13T01:01:33;3.63;;;2.10;;
81699;SDS011;71114;44.108;3.068;2023-07-13T01:04:02;4.40;;;1.90;;
81699;SDS011;71114;44.108;3.068;2023-07-13T01:06:28;5.07;;;2.30;;
81699;SDS011;71114;44.108;3.068;2023-07-13T01:08:54;4.47;;;2.35;;
81699;SDS011;71114;44.108;3.068;2023-07-13T01:11:22;4.95;;;1.92;;
81699;SDS011;71114;44.108;3.068;2023-07-13T01:13:48;5.63;;;2.40;;
81699;SDS011;71114;44.108;3.068;2023-07-13T01:16:15;5.47;;;1.92;;
81699;SDS011;71114;44.108;3.068;2023-07-13T01:18:43;5.70;;;2.30;;
81699;SDS011;71114;44.108;3.068;2023-07-13T01:21:09;4.47;;;2.13;;
81699;SDS011;71114;44.108;3.068;2023-07-13T01:23:35;6.80;;;2.30;;
81699;SDS011;71114;44.108;3.068;2023-07-13T01:26:01;5.57;;;2.53;;
81699;SDS011;71114;44.108;3.068;2023-07-13T01:28:28;4.47;;;2.00;;
81699;SDS011;71114;44.108;3.068;2023-07-13T01:30:55;4.47;;;2.08;;
81699;SDS011;71114;44.108;3.068;2023-07-13T01:33:21;6.00;;;2.00;;
81699;SDS011;71114;44.108;3.068;2023-07-13T01:35:47;4.43;;;1.90;;
81699;SDS011;71114;44.108;3.068;2023-07-13T01:38:14;3.03;;;1.60;;
81699;SDS011;71114;44.108;3.068;2023-07-13T01:40:41;3.70;;;1.92;;
81699;SDS011;71114;44.108;3.068;2023-07-13T01:43:07;4.50;;;2.33;;
81699;SDS011;71114;44.108;3.068;2023-07-13T01:45:33;5.80;;;1.92;;
81699;SDS011;71114;44.108;3.068;2023-07-13T01:47:59;3.42;;;1.60;;
81699;SDS011;71114;44.108;3.068;2023-07-13T01:50:25;4.78;;;2.22;;
81699;SDS011;71114;44.108;3.068;2023-07-13T01:52:51;3.72;;;1.85;;
81699;SDS011;71114;44.108;3.068;2023-07-13T01:55:17;4.60;;;2.00;;
81699;SDS011;71114;44.108;3.068;2023-07-13T01:57:43;3.03;;;1.70;;
81699;SDS011;71114;44.108;3.068;2023-07-13T02:00:10;3.15;;;1.67;;
81699;SDS011;71114;44.108;3.068;2023-07-13T02:02:36;3.05;;;1.52;;
81699;SDS011;71114;44.108;3.068;2023-07-13T02:05:02;3.13;;;1.70;;
81699;SDS011;71114;44.108;3.068;2023-07-13T02:07:28;2.65;;;1.38;;
81699;SDS011;71114;44.108;3.068;2023-07-13T02:09:54;4.30;;;1.55;;
81699;SDS011;71114;44.108;3.068;2023-07-13T02:12:20;3.83;;;1.90;;
81699;SDS011;71114;44.108;3.068;2023-07-13T02:14:46;4.22;;;1.90;;
81699;SDS011;71114;44.108;3.068;2023-07-13T02:17:13;5.10;;;2.17;;
81699;SDS011;71114;44.108;3.068;2023-07-13T02:19:39;4.60;;;1.63;;
81699;SDS011;71114;44.108;3.068;2023-07-13T02:22:05;3.17;;;1.70;;
81699;SDS011;71114;44.108;3.068;2023-07-13T02:24:31;4.15;;;1.65;;
81699;SDS011;71114;44.108;3.068;2023-07-13T02:26:57;5.22;;;1.77;;
81699;SDS011;71114;44.108;3.068;2023-07-13T02:29:23;3.20;;;1.88;;
81699;SDS011;71114;44.108;3.068;2023-07-13T02:31:49;3.78;;;1.90;;
81699;SDS011;71114;44.108;3.068;2023-07-13T02:34:16;4.18;;;1.60;;
81699;SDS011;71114;44.108;3.068;2023-07-13T02:36:42;3.88;;;1.77;;
81699;SDS011;71114;44.108;3.068;2023-07-13T02:39:08;3.17;;;1.83;;
81699;SDS011;71114;44.108;3.068;2023-07-13T02:41:34;3.28;;;1.67;;
81699;SDS011;71114;44.108;3.068;2023-07-13T02:44:01;2.63;;;1.40;;
81699;SDS011;71114;44.108;3.068;2023-07-13T02:46:35;3.90;;;1.48;;
81699;SDS011;71114;44.108;3.068;2023-07-13T02:49:01;3.65;;;1.80;;
81699;SDS011;71114;44.108;3.068;2023-07-13T02:51:27;3.78;;;1.52;;
81699;SDS011;71114;44.108;3.068;2023-07-13T02:53:53;3.80;;;1.65;;
81699;SDS011;71114;44.108;3.068;2023-07-13T02:56:22;4.52;;;1.50;;
81699;SDS011;71114;44.108;3.068;2023-07-13T02:58:49;3.50;;;2.03;;
81699;SDS011;71114;44.108;3.068;2023-07-13T03:01:15;3.38;;;1.45;;
81699;SDS011;71114;44.108;3.068;2023-07-13T03:03:44;5.20;;;1.80;;
81699;SDS011;71114;44.108;3.068;2023-07-13T03:06:10;2.85;;;1.42;;
81699;SDS011;71114;44.108;3.068;2023-07-13T03:08:36;4.70;;;1.58;;
81699;SDS011;71114;44.108;3.068;2023-07-13T03:11:04;3.67;;;1.85;;
81699;SDS011;71114;44.108;3.068;2023-07-13T03:13:30;3.22;;;1.63;;
81699;SDS011;71114;44.108;3.068;2023-07-13T03:15:56;2.88;;;1.30;;
81699;SDS011;71114;44.108;3.068;2023-07-13T03:18:22;3.55;;;1.60;;
81699;SDS011;71114;44.108;3.068;2023-07-13T03:20:51;4.80;;;1.83;;
81699;SDS011;71114;44.108;3.068;2023-07-13T03:23:17;3.70;;;1.40;;
81699;SDS011;71114;44.108;3.068;2023-07-13T03:25:43;5.45;;;1.73;;
81699;SDS011;71114;44.108;3.068;2023-07-13T03:28:10;2.88;;;1.45;;
81699;SDS011;71114;44.108;3.068;2023-07-13T03:30:36;3.50;;;1.63;;
81699;SDS011;71114;44.108;3.068;2023-07-13T03:33:02;3.10;;;1.60;;
81699;SDS011;71114;44.108;3.068;2023-07-13T03:35:28;3.80;;;1.67;;
81699;SDS011;71114;44.108;3.068;2023-07-13T03:37:54;3.65;;;1.50;;
81699;SDS011;71114;44.108;3.068;2023-07-13T03:40:21;3.22;;;1.50;;
81699;SDS011;71114;44.108;3.068;2023-07-13T03:42:47;3.65;;;1.63;;
81699;SDS011;71114;44.108;3.068;2023-07-13T03:45:14;3.00;;;1.38;;
81699;SDS011;71114;44.108;3.068;2023-07-13T03:47:40;3.83;;;1.60;;
81699;SDS011;71114;44.108;3.068;2023-07-13T03:50:06;4.85;;;1.98;;
81699;SDS011;71114;44.108;3.068;2023-07-13T03:52:32;3.83;;;1.50;;
81699;SDS011;71114;44.108;3.068;2023-07-13T03:54:58;4.13;;;1.52;;
81699;SDS011;71114;44.108;3.068;2023-07-13T03:57:25;4.70;;;2.13;;
81699;SDS011;71114;44.108;3.068;2023-07-13T03:59:51;3.35;;;1.60;;
81699;SDS011;71114;44.108;3.068;2023-07-13T04:02:18;5.63;;;1.50;;
81699;SDS011;71114;44.108;3.068;2023-07-13T04:04:44;5.22;;;1.63;;
81699;SDS011;71114;44.108;3.068;2023-07-13T04:07:10;5.03;;;1.55;;
81699;SDS011;71114;44.108;3.068;2023-07-13T04:09:36;3.85;;;1.50;;
81699;SDS011;71114;44.108;3.068;2023-07-13T04:12:02;4.25;;;1.50;;
81699;SDS011;71114;44.108;3.068;2023-07-13T04:14:28;9.30;;;1.70;;
81699;SDS011;71114;44.108;3.068;2023-07-13T04:16:54;4.15;;;1.50;;
81699;SDS011;71114;44.108;3.068;2023-07-13T04:19:20;6.10;;;1.55;;
81699;SDS011;71114;44.108;3.068;2023-07-13T04:21:47;2.15;;;1.50;;
81699;SDS011;71114;44.108;3.068;2023-07-13T04:24:13;4.95;;;1.65;;
81699;SDS011;71114;44.108;3.068;2023-07-13T04:26:39;3.60;;;1.50;;
81699;SDS011;71114;44.108;3.068;2023-07-13T04:29:05;3.80;;;1.70;;
81699;SDS011;71114;44.108;3.068;2023-07-13T04:31:32;5.65;;;1.50;;
81699;SDS011;71114;44.108;3.068;2023-07-13T04:33:58;3.85;;;1.58;;
81699;SDS011;71114;44.108;3.068;2023-07-13T04:36:24;3.80;;;1.60;;
81699;SDS011;71114;44.108;3.068;2023-07-13T04:38:53;3.80;;;1.58;;
81699;SDS011;71114;44.108;3.068;2023-07-13T04:41:20;3.97;;;1.90;;
81699;SDS011;71114;44.108;3.068;2023-07-13T04:43:46;3.83;;;1.50;;
81699;SDS011;71114;44.108;3.068;2023-07-13T04:46:14;2.35;;;1.50;;
81699;SDS011;71114;44.108;3.068;2023-07-13T04:48:42;2.70;;;1.60;;
81699;SDS011;71114;44.108;3.068;2023-07-13T04:51:08;4.47;;;1.80;;
81699;SDS011;71114;44.108;3.068;2023-07-13T04:53:35;4.05;;;1.80;;
81699;SDS011;71114;44.108;3.068;2023-07-13T04:56:01;3.53;;;1.63;;
81699;SDS011;71114;44.108;3.068;2023-07-13T04:58:27;4.88;;;1.95;;
81699;SDS011;71114;44.108;3.068;2023-07-13T05:00:53;5.00;;;1.75;;
81699;SDS011;71114;44.108;3.068;2023-07-13T05:03:24;5.25;;;1.48;;
81699;SDS011;71114;44.108;3.068;2023-07-13T05:05:54;3.72;;;1.55;;
81699;SDS011;71114;44.108;3.068;2023-07-13T05:08:20;6.22;;;1.90;;
81699;SDS011;71114;44.108;3.068;2023-07-13T05:10:46;3.92;;;2.00;;
81699;SDS011;71114;44.108;3.068;2023-07-13T05:13:12;5.75;;;2.25;;
81699;SDS011;71114;44.108;3.068;2023-07-13T05:15:38;3.10;;;1.70;;
81699;SDS011;71114;44.108;3.068;2023-07-13T05:18:04;3.53;;;1.80;;
81699;SDS011;71114;44.108;3.068;2023-07-13T05:20:30;3.22;;;1.80;;
81699;SDS011;71114;44.108;3.068;2023-07-13T05:22:56;5.00;;;1.80;;
81699;SDS011;71114;44.108;3.068;2023-07-13T05:25:22;6.43;;;2.05;;
81699;SDS011;71114;44.108;3.068;2023-07-13T05:27:49;4.50;;;2.03;;
81699;SDS011;71114;44.108;3.068;2023-07-13T05:30:15;3.40;;;1.80;;
81699;SDS011;71114;44.108;3.068;2023-07-13T05:32:41;3.83;;;1.70;;
81699;SDS011;71114;44.108;3.068;2023-07-13T05:35:07;4.35;;;2.50;;
81699;SDS011;71114;44.108;3.068;2023-07-13T05:37:33;5.00;;;2.33;;
81699;SDS011;71114;44.108;3.068;2023-07-13T05:39:59;4.70;;;1.83;;
81699;SDS011;71114;44.108;3.068;2023-07-13T05:42:25;3.30;;;1.80;;
81699;SDS011;71114;44.108;3.068;2023-07-13T05:44:51;5.22;;;1.85;;
81699;SDS011;71114;44.108;3.068;2023-07-13T05:47:17;4.60;;;2.08;;
81699;SDS011;71114;44.108;3.068;2023-07-13T05:49:43;7.45;;;1.90;;
81699;SDS011;71114;44.108;3.068;2023-07-13T05:52:09;4.60;;;1.85;;
81699;SDS011;71114;44.108;3.068;2023-07-13T05:54:35;3.90;;;1.80;;
81699;SDS011;71114;44.108;3.068;2023-07-13T05:57:01;5.60;;;2.78;;
81699;SDS011;71114;44.108;3.068;2023-07-13T05:59:27;6.47;;;1.85;;
81699;SDS011;71114;44.108;3.068;2023-07-13T06:01:53;4.53;;;1.50;;
81699;SDS011;71114;44.108;3.068;2023-07-13T06:04:19;3.53;;;1.67;;
81699;SDS011;71114;44.108;3.068;2023-07-13T06:06:45;3.88;;;1.60;;
81699;SDS011;71114;44.108;3.068;2023-07-13T06:09:11;3.92;;;1.50;;
81699;SDS011;71114;44.108;3.068;2023-07-13T06:11:37;6.60;;;1.55;;
81699;SDS011;71114;44.108;3.068;2023-07-13T06:14:03;4.88;;;1.48;;
81699;SDS011;71114;44.108;3.068;2023-07-13T06:16:29;5.03;;;1.90;;
81699;SDS011;71114;44.108;3.068;2023-07-13T06:18:55;4.57;;;1.30;;
81699;SDS011;71114;44.108;3.068;2023-07-13T06:21:22;6.53;;;1.40;;
81699;SDS011;71114;44.108;3.068;2023-07-13T06:23:49;3.92;;;1.98;;
81699;SDS011;71114;44.108;3.068;2023-07-13T06:26:15;3.88;;;1.83;;
81699;SDS011;71114;44.108;3.068;2023-07-13T06:28:41;3.33;;;1.50;;
81699;SDS011;71114;44.108;3.068;2023-07-13T06:31:08;3.88;;;1.48;;
81699;SDS011;71114;44.108;3.068;2023-07-13T06:33:35;3.70;;;1.48;;
81699;SDS011;71114;44.108;3.068;2023-07-13T06:36:02;5.53;;;2.00;;
81699;SDS011;71114;44.108;3.068;2023-07-13T06:38:28;5.43;;;1.45;;
81699;SDS011;71114;44.108;3.068;2023-07-13T06:40:55;5.40;;;1.67;;
81699;SDS011;71114;44.108;3.068;2023-07-13T06:43:21;2.50;;;1.55;;
81699;SDS011;71114;44.108;3.068;2023-07-13T06:45:48;6.40;;;1.70;;
81699;SDS011;71114;44.108;3.068;2023-07-13T06:48:18;5.22;;;1.77;;
81699;SDS011;71114;44.108;3.068;2023-07-13T06:50:45;2.85;;;1.30;;
81699;SDS011;71114;44.108;3.068;2023-07-13T06:53:11;3.95;;;1.73;;
81699;SDS011;71114;44.108;3.068;2023-07-13T06:55:38;3.88;;;1.40;;
81699;SDS011;71114;44.108;3.068;2023-07-13T06:58:04;3.03;;;1.45;;
81699;SDS011;71114;44.108;3.068;2023-07-13T07:00:31;4.68;;;1.50;;
81699;SDS011;71114;44.108;3.068;2023-07-13T07:02:57;5.65;;;1.45;;
81699;SDS011;71114;44.108;3.068;2023-07-13T07:05:23;5.50;;;2.38;;
81699;SDS011;71114;44.108;3.068;2023-07-13T07:07:49;4.90;;;1.58;;
81699;SDS011;71114;44.108;3.068;2023-07-13T07:10:16;3.95;;;1.50;;
81699;SDS011;71114;44.108;3.068;2023-07-13T07:12:42;5.57;;;2.17;;
81699;SDS011;71114;44.108;3.068;2023-07-13T07:15:08;4.70;;;1.40;;
81699;SDS011;71114;44.108;3.068;2023-07-13T07:17:34;4.43;;;1.50;;
81699;SDS011;71114;44.108;3.068;2023-07-13T07:20:00;4.13;;;1.67;;
81699;SDS011;71114;44.108;3.068;2023-07-13T07:22:26;5.57;;;1.38;;
81699;SDS011;71114;44.108;3.068;2023-07-13T07:24:53;4.95;;;1.52;;
81699;SDS011;71114;44.108;3.068;2023-07-13T07:27:19;5.82;;;1.63;;
81699;SDS011;71114;44.108;3.068;2023-07-13T07:29:45;6.65;;;1.75;;
81699;SDS011;71114;44.108;3.068;2023-07-13T07:32:11;7.97;;;2.17;;
81699;SDS011;71114;44.108;3.068;2023-07-13T07:34:37;6.78;;;1.67;;
81699;SDS011;71114;44.108;3.068;2023-07-13T07:37:03;4.32;;;1.35;;
81699;SDS011;71114;44.108;3.068;2023-07-13T07:39:29;3.42;;;1.52;;
81699;SDS011;71114;44.108;3.068;2023-07-13T07:41:55;5.88;;;1.35;;
81699;SDS011;71114;44.108;3.068;2023-07-13T07:44:22;9.40;;;2.65;;
81699;SDS011;71114;44.108;3.068;2023-07-13T07:46:48;2.78;;;1.10;;
81699;SDS011;71114;44.108;3.068;2023-07-13T07:49:14;3.28;;;1.10;;
81699;SDS011;71114;44.108;3.068;2023-07-13T07:51:40;5.50;;;1.63;;
81699;SDS011;71114;44.108;3.068;2023-07-13T07:54:06;2.58;;;1.10;;
81699;SDS011;71114;44.108;3.068;2023-07-13T07:56:32;2.60;;;1.15;;
81699;SDS011;71114;44.108;3.068;2023-07-13T07:58:58;5.82;;;1.40;;
81699;SDS011;71114;44.108;3.068;2023-07-13T08:01:24;4.40;;;1.70;;
81699;SDS011;71114;44.108;3.068;2023-07-13T08:03:50;4.82;;;1.38;;
81699;SDS011;71114;44.108;3.068;2023-07-13T08:06:17;4.55;;;1.30;;
81699;SDS011;71114;44.108;3.068;2023-07-13T08:08:44;5.65;;;1.40;;
81699;SDS011;71114;44.108;3.068;2023-07-13T08:11:11;3.85;;;1.30;;
81699;SDS011;71114;44.108;3.068;2023-07-13T08:13:37;4.78;;;1.10;;
81699;SDS011;71114;44.108;3.068;2023-07-13T08:16:04;4.15;;;1.85;;
81699;SDS011;71114;44.108;3.068;2023-07-13T08:18:30;3.38;;;1.50;;
81699;SDS011;71114;44.108;3.068;2023-07-13T08:20:56;2.45;;;1.20;;
81699;SDS011;71114;44.108;3.068;2023-07-13T08:23:23;4.43;;;1.52;;
81699;SDS011;71114;44.108;3.068;2023-07-13T08:25:50;4.22;;;1.35;;
81699;SDS011;71114;44.108;3.068;2023-07-13T08:28:16;5.35;;;1.30;;
81699;SDS011;71114;44.108;3.068;2023-07-13T08:30:42;3.25;;;1.50;;
81699;SDS011;71114;44.108;3.068;2023-07-13T08:33:08;3.70;;;1.48;;
81699;SDS011;71114;44.108;3.068;2023-07-13T08:35:34;2.95;;;1.20;;
81699;SDS011;71114;44.108;3.068;2023-07-13T08:38:00;3.72;;;1.75;;
81699;SDS011;71114;44.108;3.068;2023-07-13T08:40:26;3.88;;;1.65;;
81699;SDS011;71114;44.108;3.068;2023-07-13T08:42:57;3.00;;;1.17;;
81699;SDS011;71114;44.108;3.068;2023-07-13T08:45:25;4.38;;;1.40;;
81699;SDS011;71114;44.108;3.068;2023-07-13T08:50:22;1.63;;;1.00;;
81699;SDS011;71114;44.108;3.068;2023-07-13T08:52:49;3.50;;;1.40;;
81699;SDS011;71114;44.108;3.068;2023-07-13T08:57:42;3.22;;;1.30;;
81699;SDS011;71114;44.108;3.068;2023-07-13T09:00:09;3.88;;;1.10;;
81699;SDS011;71114;44.108;3.068;2023-07-13T09:05:17;3.05;;;1.20;;
81699;SDS011;71114;44.108;3.068;2023-07-13T09:08:04;3.22;;;1.20;;
81699;SDS011;71114;44.108;3.068;2023-07-13T09:10:43;3.90;;;1.27;;
81699;SDS011;71114;44.108;3.068;2023-07-13T09:13:17;4.63;;;1.60;;
81699;SDS011;71114;44.108;3.068;2023-07-13T09:15:46;4.13;;;1.40;;
81699;SDS011;71114;44.108;3.068;2023-07-13T09:20:46;4.85;;;1.23;;
81699;SDS011;71114;44.108;3.068;2023-07-13T09:23:15;3.97;;;1.13;;
81699;SDS011;71114;44.108;3.068;2023-07-13T09:25:43;3.20;;;1.20;;
81699;SDS011;71114;44.108;3.068;2023-07-13T09:30:39;2.33;;;1.35;;
81699;SDS011;71114;44.108;3.068;2023-07-13T09:33:08;3.85;;;1.40;;
81699;SDS011;71114;44.108;3.068;2023-07-13T09:35:34;4.35;;;1.20;;
81699;SDS011;71114;44.108;3.068;2023-07-13T09:38:19;5.93;;;1.30;;
81699;SDS011;71114;44.108;3.068;2023-07-13T09:43:34;10.30;;;1.50;;
81699;SDS011;71114;44.108;3.068;2023-07-13T09:46:00;3.95;;;1.60;;
81699;SDS011;71114;44.108;3.068;2023-07-13T09:48:30;3.47;;;1.20;;
81699;SDS011;71114;44.108;3.068;2023-07-13T09:51:01;3.53;;;1.70;;
81699;SDS011;71114;44.108;3.068;2023-07-13T09:53:31;3.85;;;1.23;;
81699;SDS011;71114;44.108;3.068;2023-07-13T09:55:57;4.03;;;1.35;;
81699;SDS011;71114;44.108;3.068;2023-07-13T09:58:25;4.18;;;1.50;;
81699;SDS011;71114;44.108;3.068;2023-07-13T10:00:57;2.67;;;1.38;;
81699;SDS011;71114;44.108;3.068;2023-07-13T10:03:30;4.30;;;1.38;;
81699;SDS011;71114;44.108;3.068;2023-07-13T10:06:09;4.05;;;1.40;;
81699;SDS011;71114;44.108;3.068;2023-07-13T10:08:36;3.97;;;1.50;;
81699;SDS011;71114;44.108;3.068;2023-07-13T10:11:19;2.95;;;1.40;;
81699;SDS011;71114;44.108;3.068;2023-07-13T10:13:48;3.85;;;1.42;;
81699;SDS011;71114;44.108;3.068;2023-07-13T10:16:16;2.92;;;1.55;;
81699;SDS011;71114;44.108;3.068;2023-07-13T10:18:45;3.30;;;1.80;;
81699;SDS011;71114;44.108;3.068;2023-07-13T10:21:18;2.03;;;1.40;;
81699;SDS011;71114;44.108;3.068;2023-07-13T10:23:54;3.15;;;1.70;;
81699;SDS011;71114;44.108;3.068;2023-07-13T10:26:22;2.72;;;1.40;;
81699;SDS011;71114;44.108;3.068;2023-07-13T10:28:51;3.63;;;1.77;;
81699;SDS011;71114;44.108;3.068;2023-07-13T10:31:18;4.07;;;1.80;;
81699;SDS011;71114;44.108;3.068;2023-07-13T10:33:45;6.18;;;1.88;;
81699;SDS011;71114;44.108;3.068;2023-07-13T10:38:43;3.55;;;1.80;;
81699;SDS011;71114;44.108;3.068;2023-07-13T10:41:10;3.35;;;1.80;;
81699;SDS011;71114;44.108;3.068;2023-07-13T10:43:45;3.35;;;1.70;;
81699;SDS011;71114;44.108;3.068;2023-07-13T10:46:15;3.20;;;1.83;;
81699;SDS011;71114;44.108;3.068;2023-07-13T10:48:43;2.75;;;2.00;;
81699;SDS011;71114;44.108;3.068;2023-07-13T10:51:10;4.65;;;2.65;;
81699;SDS011;71114;44.108;3.068;2023-07-13T10:53:37;3.45;;;2.10;;
81699;SDS011;71114;44.108;3.068;2023-07-13T10:56:06;2.35;;;1.92;;
81699;SDS011;71114;44.108;3.068;2023-07-13T10:58:42;5.50;;;2.30;;
81699;SDS011;71114;44.108;3.068;2023-07-13T11:01:09;2.72;;;2.10;;
81699;SDS011;71114;44.108;3.068;2023-07-13T11:04:00;4.15;;;2.38;;
81699;SDS011;71114;44.108;3.068;2023-07-13T11:08:51;4.53;;;2.10;;
81699;SDS011;71114;44.108;3.068;2023-07-13T11:19:37;2.92;;;2.55;;
81699;SDS011;71114;44.108;3.068;2023-07-13T11:21:31;5.00;;;2.70;;
81699;SDS011;71114;44.108;3.068;2023-07-13T11:24:02;3.58;;;2.58;;
81699;SDS011;71114;44.108;3.068;2023-07-13T11:31:52;3.88;;;2.88;;
81699;SDS011;71114;44.108;3.068;2023-07-13T11:34:23;4.43;;;2.95;;
81699;SDS011;71114;44.108;3.068;2023-07-13T11:36:51;2.65;;;2.45;;
81699;SDS011;71114;44.108;3.068;2023-07-13T11:41:44;3.40;;;2.70;;
81699;SDS011;71114;44.108;3.068;2023-07-13T11:44:15;3.88;;;2.42;;
81699;SDS011;71114;44.108;3.068;2023-07-13T11:46:46;3.08;;;2.38;;
81699;SDS011;71114;44.108;3.068;2023-07-13T11:49:15;5.20;;;2.78;;
81699;SDS011;71114;44.108;3.068;2023-07-13T11:51:41;3.47;;;2.33;;
81699;SDS011;71114;44.108;3.068;2023-07-13T11:54:14;4.20;;;2.50;;
81699;SDS011;71114;44.108;3.068;2023-07-13T11:59:07;4.90;;;2.63;;
81699;SDS011;71114;44.108;3.068;2023-07-13T12:01:34;4.20;;;2.40;;
81699;SDS011;71114;44.108;3.068;2023-07-13T12:04:03;3.13;;;2.22;;
81699;SDS011;71114;44.108;3.068;2023-07-13T12:06:32;4.18;;;2.88;;
81699;SDS011;71114;44.108;3.068;2023-07-13T12:09:03;2.50;;;2.20;;
81699;SDS011;71114;44.108;3.068;2023-07-13T12:11:29;4.18;;;2.10;;
81699;SDS011;71114;44.108;3.068;2023-07-13T12:13:56;4.15;;;2.50;;
81699;SDS011;71114;44.108;3.068;2023-07-13T12:18:48;7.65;;;2.78;;
81699;SDS011;71114;44.108;3.068;2023-07-13T12:21:16;4.40;;;2.70;;
81699;SDS011;71114;44.108;3.068;2023-07-13T12:23:43;3.58;;;2.35;;
81699;SDS011;71114;44.108;3.068;2023-07-13T12:26:10;3.80;;;2.25;;
81699;SDS011;71114;44.108;3.068;2023-07-13T12:28:47;3.10;;;2.05;;
81699;SDS011;71114;44.108;3.068;2023-07-13T12:31:25;5.38;;;3.00;;
81699;SDS011;71114;44.108;3.068;2023-07-13T12:34:02;4.32;;;3.40;;
81699;SDS011;71114;44.108;3.068;2023-07-13T12:36:31;2.55;;;2.03;;
81699;SDS011;71114;44.108;3.068;2023-07-13T12:39:00;3.13;;;1.95;;
81699;SDS011;71114;44.108;3.068;2023-07-13T12:41:29;2.97;;;1.98;;
81699;SDS011;71114;44.108;3.068;2023-07-13T12:43:55;3.05;;;2.20;;
81699;SDS011;71114;44.108;3.068;2023-07-13T12:46:23;2.83;;;2.20;;
81699;SDS011;71114;44.108;3.068;2023-07-13T12:48:51;2.90;;;2.10;;
81699;SDS011;71114;44.108;3.068;2023-07-13T12:51:21;7.70;;;2.15;;
81699;SDS011;71114;44.108;3.068;2023-07-13T12:53:48;3.67;;;2.13;;
81699;SDS011;71114;44.108;3.068;2023-07-13T12:56:22;4.60;;;2.08;;
81699;SDS011;71114;44.108;3.068;2023-07-13T12:58:49;3.15;;;1.75;;
81699;SDS011;71114;44.108;3.068;2023-07-13T13:01:19;5.93;;;1.83;;
81699;SDS011;71114;44.108;3.068;2023-07-13T13:03:47;2.95;;;1.80;;
81699;SDS011;71114;44.108;3.068;2023-07-13T13:08:40;4.93;;;1.85;;
81699;SDS011;71114;44.108;3.068;2023-07-13T13:11:09;2.28;;;1.70;;
81699;SDS011;71114;44.108;3.068;2023-07-13T13:13:35;3.75;;;2.00;;
81699;SDS011;71114;44.108;3.068;2023-07-13T13:18:48;2.92;;;1.83;;
81699;SDS011;71114;44.108;3.068;2023-07-13T13:21:15;3.17;;;1.73;;
81699;SDS011;71114;44.108;3.068;2023-07-13T13:23:41;4.18;;;1.67;;
81699;SDS011;71114;44.108;3.068;2023-07-13T13:26:10;3.20;;;2.00;;
81699;SDS011;71114;44.108;3.068;2023-07-13T13:28:36;3.80;;;1.80;;
81699;SDS011;71114;44.108;3.068;2023-07-13T13:31:02;3.70;;;1.70;;
81699;SDS011;71114;44.108;3.068;2023-07-13T13:33:28;3.15;;;1.83;;
81699;SDS011;71114;44.108;3.068;2023-07-13T13:35:55;3.65;;;1.80;;
81699;SDS011;71114;44.108;3.068;2023-07-13T13:38:24;3.33;;;1.77;;
81699;SDS011;71114;44.108;3.068;2023-07-13T13:40:50;3.92;;;2.00;;
81699;SDS011;71114;44.108;3.068;2023-07-13T13:43:17;5.47;;;2.08;;
81699;SDS011;71114;44.108;3.068;2023-07-13T13:45:44;2.97;;;1.67;;
81699;SDS011;71114;44.108;3.068;2023-07-13T13:48:14;3.58;;;1.65;;
81699;SDS011;71114;44.108;3.068;2023-07-13T13:50:41;2.47;;;1.52;;
81699;SDS011;71114;44.108;3.068;2023-07-13T13:53:09;4.10;;;1.50;;
81699;SDS011;71114;44.108;3.068;2023-07-13T13:55:36;3.05;;;1.50;;
81699;SDS011;71114;44.108;3.068;2023-07-13T13:58:02;2.63;;;1.50;;
81699;SDS011;71114;44.108;3.068;2023-07-13T14:00:28;2.92;;;1.58;;
81699;SDS011;71114;44.108;3.068;2023-07-13T14:02:55;4.50;;;1.27;;
81699;SDS011;71114;44.108;3.068;2023-07-13T14:05:23;3.67;;;1.20;;
81699;SDS011;71114;44.108;3.068;2023-07-13T14:07:51;3.83;;;1.58;;
81699;SDS011;71114;44.108;3.068;2023-07-13T14:10:18;3.05;;;1.23;;
81699;SDS011;71114;44.108;3.068;2023-07-13T14:12:45;2.22;;;1.25;;
81699;SDS011;71114;44.108;3.068;2023-07-13T14:15:18;3.22;;;1.52;;
81699;SDS011;71114;44.108;3.068;2023-07-13T14:17:45;1.92;;;1.00;;
81699;SDS011;71114;44.108;3.068;2023-07-13T14:20:14;5.47;;;1.30;;
81699;SDS011;71114;44.108;3.068;2023-07-13T14:22:40;4.57;;;1.20;;
81699;SDS011;71114;44.108;3.068;2023-07-13T14:25:11;2.90;;;1.40;;
81699;SDS011;71114;44.108;3.068;2023-07-13T14:27:37;2.63;;;1.27;;
81699;SDS011;71114;44.108;3.068;2023-07-13T14:30:08;6.28;;;0.98;;
81699;SDS011;71114;44.108;3.068;2023-07-13T14:32:35;4.72;;;1.42;;
81699;SDS011;71114;44.108;3.068;2023-07-13T14:35:01;3.25;;;1.40;;
81699;SDS011;71114;44.108;3.068;2023-07-13T14:37:27;3.22;;;1.38;;
81699;SDS011;71114;44.108;3.068;2023-07-13T14:39:53;3.63;;;1.23;;
81699;SDS011;71114;44.108;3.068;2023-07-13T14:42:19;5.70;;;3.05;;
81699;SDS011;71114;44.108;3.068;2023-07-13T14:44:45;3.95;;;1.52;;
81699;SDS011;71114;44.108;3.068;2023-07-13T14:47:11;6.45;;;3.30;;
81699;SDS011;71114;44.108;3.068;2023-07-13T14:49:38;3.03;;;1.40;;
81699;SDS011;71114;44.108;3.068;2023-07-13T14:52:10;3.95;;;1.85;;
81699;SDS011;71114;44.108;3.068;2023-07-13T14:54:37;4.93;;;1.55;;
81699;SDS011;71114;44.108;3.068;2023-07-13T14:57:08;3.05;;;1.13;;
81699;SDS011;71114;44.108;3.068;2023-07-13T14:59:34;2.13;;;1.23;;
81699;SDS011;71114;44.108;3.068;2023-07-13T15:02:00;4.72;;;1.38;;
81699;SDS011;71114;44.108;3.068;2023-07-13T15:04:27;2.83;;;1.23;;
81699;SDS011;71114;44.108;3.068;2023-07-13T15:07:02;2.35;;;1.20;;
81699;SDS011;71114;44.108;3.068;2023-07-13T15:09:28;4.05;;;1.25;;
81699;SDS011;71114;44.108;3.068;2023-07-13T15:11:55;4.57;;;1.77;;
81699;SDS011;71114;44.108;3.068;2023-07-13T15:14:21;3.97;;;1.20;;
81699;SDS011;71114;44.108;3.068;2023-07-13T15:16:49;2.63;;;1.15;;
81699;SDS011;71114;44.108;3.068;2023-07-13T15:19:16;3.95;;;1.60;;
81699;SDS011;71114;44.108;3.068;2023-07-13T15:21:43;2.15;;;1.00;;
81699;SDS011;71114;44.108;3.068;2023-07-13T15:24:10;2.60;;;1.10;;
81699;SDS011;71114;44.108;3.068;2023-07-13T15:26:36;3.72;;;1.35;;
81699;SDS011;71114;44.108;3.068;2023-07-13T15:29:03;2.65;;;1.17;;
81699;SDS011;71114;44.108;3.068;2023-07-13T15:31:29;4.28;;;1.48;;
81699;SDS011;71114;44.108;3.068;2023-07-13T15:33:57;2.13;;;1.10;;
81699;SDS011;71114;44.108;3.068;2023-07-13T15:36:23;1.98;;;1.13;;